Time;durP1;ratioP1;P1;durP2;ratioP2;P2;SDS_P1;SDS_P2;PMS_P1;PMS_P2;Temp;Humidity;BMP_temperature;BMP_pressure;BME280_temperature;BME280_humidity;BME280_pressure;Samples;Min_cycle;Max_cycle;Signal;HPM_P1;HPM_P2
2021/04/13 00:02:15;;;;;;;4.63;4.13;;;3.30;99.90;;;;;;5101976;28;20404;-51
2021/04/13 00:04:42;;;;;;;5.30;3.80;;;3.30;99.90;;;;;;5108791;28;20186;-51
2021/04/13 00:07:08;;;;;;;4.60;3.88;;;3.40;99.90;;;;;;5105596;28;20198;-50
2021/04/13 00:09:34;;;;;;;5.65;3.80;;;3.50;99.90;;;;;;5107509;28;20187;-51
2021/04/13 00:12:31;;;;;;;4.60;4.10;;;3.40;99.90;;;;;;5107255;28;20204;-51
2021/04/13 00:15:01;;;;;;;5.53;5.03;;;3.20;99.90;;;;;;5085725;28;20209;-50
2021/04/13 00:17:31;;;;;;;5.78;4.00;;;3.00;99.90;;;;;;5107609;28;20188;-50
2021/04/13 00:20:17;;;;;;;3.90;3.42;;;3.30;99.90;;;;;;5107903;28;20191;-50
2021/04/13 00:22:44;;;;;;;4.50;4.07;;;3.10;99.90;;;;;;5106552;28;20208;-51
2021/04/13 00:25:21;;;;;;;6.20;4.13;;;2.50;99.90;;;;;;5107382;28;20606;-51
2021/04/13 00:27:48;;;;;;;4.45;3.88;;;3.10;99.90;;;;;;5107259;28;20215;-51
2021/04/13 00:30:17;;;;;;;4.22;3.78;;;3.20;99.90;;;;;;5107181;28;20183;-51
2021/04/13 00:32:56;;;;;;;4.10;3.78;;;3.20;99.90;;;;;;5107697;28;20187;-51
2021/04/13 00:35:30;;;;;;;5.00;4.47;;;3.20;99.90;;;;;;5107281;28;20211;-51
2021/04/13 00:38:18;;;;;;;4.40;4.00;;;2.90;99.90;;;;;;5103001;28;20215;-52
2021/04/13 00:40:48;;;;;;;4.60;4.15;;;3.20;99.90;;;;;;5111458;28;20216;-49
2021/04/13 00:43:16;;;;;;;4.05;3.72;;;3.00;99.90;;;;;;5111864;28;20279;-51
2021/04/13 00:45:46;;;;;;;5.55;5.00;;;3.20;99.90;;;;;;5103277;28;20180;-51
2021/04/13 00:48:20;;;;;;;4.68;4.28;;;3.00;99.90;;;;;;5111244;28;20187;-52
2021/04/13 00:50:49;;;;;;;4.03;3.60;;;3.30;99.90;;;;;;5127883;27;20605;-52
2021/04/13 00:53:18;;;;;;;7.60;4.50;;;3.10;99.90;;;;;;5110910;28;20213;-51
2021/04/13 00:55:53;;;;;;;3.67;3.38;;;3.00;99.90;;;;;;5109439;28;20261;-51
2021/04/13 00:58:29;;;;;;;4.70;4.03;;;3.10;99.90;;;;;;5127759;27;20278;-51
2021/04/13 01:01:06;;;;;;;4.32;3.92;;;3.00;99.90;;;;;;5110366;28;20218;-51
2021/04/13 01:03:32;;;;;;;4.00;3.70;;;3.20;99.90;;;;;;5108813;28;20665;-51
2021/04/13 01:06:00;;;;;;;5.80;4.10;;;3.00;99.90;;;;;;5110870;28;20580;-51
2021/04/13 01:08:37;;;;;;;4.80;4.40;;;3.00;99.90;;;;;;5110329;28;20176;-51
2021/04/13 01:11:26;;;;;;;4.53;3.75;;;3.00;99.90;;;;;;5110201;28;20200;-52
2021/04/13 01:14:01;;;;;;;4.43;4.03;;;2.80;99.90;;;;;;5105763;28;20222;-51
2021/04/13 01:16:32;;;;;;;4.20;3.80;;;3.10;99.90;;;;;;5110098;28;20312;-51
2021/04/13 01:19:03;;;;;;;4.50;4.10;;;3.20;99.90;;;;;;5110657;28;20209;-51
2021/04/13 01:22:05;;;;;;;5.63;4.95;;;2.90;99.90;;;;;;5110313;28;20238;-50
2021/04/13 01:24:36;;;;;;;4.70;4.30;;;2.90;99.90;;;;;;5105018;28;20186;-50
2021/04/13 01:27:09;;;;;;;5.00;4.05;;;3.10;99.90;;;;;;5110044;28;20187;-51
2021/04/13 01:29:36;;;;;;;5.18;3.80;;;3.00;99.90;;;;;;5109934;28;20247;-50
2021/04/13 01:32:03;;;;;;;4.68;4.18;;;3.40;99.90;;;;;;5109773;28;20289;-51
2021/04/13 01:35:07;;;;;;;7.97;5.18;;;3.20;99.90;;;;;;5110125;28;20202;-51
2021/04/13 01:37:53;;;;;;;4.70;4.30;;;3.30;99.90;;;;;;5103265;28;20191;-51
2021/04/13 01:43:11;;;;;;;5.38;4.57;;;3.10;99.90;;;;;;5108709;28;20208;-50
2021/04/13 01:45:39;;;;;;;5.13;4.63;;;3.30;99.90;;;;;;5109866;28;20236;-51
2021/04/13 01:48:06;;;;;;;4.63;4.20;;;2.90;99.90;;;;;;5110738;28;20625;-51
2021/04/13 01:50:45;;;;;;;4.85;4.45;;;3.20;99.90;;;;;;5109322;28;20219;-50
2021/04/13 01:53:15;;;;;;;4.90;4.50;;;2.80;99.90;;;;;;5109415;28;21023;-51
2021/04/13 01:55:51;;;;;;;5.20;4.70;;;2.80;99.90;;;;;;5109810;28;20195;-50
2021/04/13 01:58:43;;;;;;;4.43;4.10;;;2.90;99.90;;;;;;5109970;28;20278;-51
2021/04/13 02:01:35;;;;;;;5.40;4.70;;;2.60;99.90;;;;;;5105529;28;20237;-51
2021/04/13 02:04:17;;;;;;;5.50;4.72;;;2.70;99.90;;;;;;5105145;28;20199;-51
2021/04/13 02:06:53;;;;;;;5.82;4.57;;;2.90;99.90;;;;;;5111252;28;20259;-51
2021/04/13 02:09:36;;;;;;;5.30;4.63;;;3.00;99.90;;;;;;5110841;28;20203;-50
2021/04/13 02:12:08;;;;;;;4.95;4.45;;;2.80;99.90;;;;;;5103337;28;20229;-51
2021/04/13 02:14:41;;;;;;;4.70;4.30;;;2.90;99.90;;;;;;5109867;28;20662;-52
2021/04/13 02:17:21;;;;;;;5.13;4.65;;;2.90;99.90;;;;;;5103956;28;20180;-52
2021/04/13 02:19:49;;;;;;;4.78;4.30;;;2.70;99.90;;;;;;5109820;28;20413;-52
2021/04/13 02:22:17;;;;;;;6.13;4.90;;;2.60;99.90;;;;;;5110099;28;20230;-51
2021/04/13 02:24:44;;;;;;;5.10;4.20;;;2.90;99.90;;;;;;5110136;28;20191;-51
2021/04/13 02:27:14;;;;;;;6.90;5.00;;;2.80;99.90;;;;;;5109648;28;20270;-50
2021/04/13 02:29:44;;;;;;;5.22;4.72;;;2.70;99.90;;;;;;5102778;28;20202;-51
2021/04/13 02:32:27;;;;;;;5.43;4.90;;;2.70;99.90;;;;;;5109030;28;20234;-52
2021/04/13 02:34:55;;;;;;;6.47;5.00;;;2.90;99.90;;;;;;5109141;28;20271;-51
2021/04/13 02:37:31;;;;;;;6.05;4.97;;;2.70;99.90;;;;;;5109373;28;20241;-51
2021/04/13 02:40:08;;;;;;;5.05;4.60;;;2.90;99.90;;;;;;5109240;28;20183;-51
2021/04/13 02:42:38;;;;;;;5.10;4.60;;;2.80;99.90;;;;;;5109399;28;20207;-51
2021/04/13 02:45:08;;;;;;;5.60;5.10;;;2.90;99.90;;;;;;5108632;28;20183;-51
2021/04/13 02:47:43;;;;;;;4.97;4.47;;;2.80;99.90;;;;;;5109126;28;20180;-51
2021/04/13 02:50:11;;;;;;;5.88;4.63;;;2.50;99.90;;;;;;5108379;28;20232;-50
2021/04/13 02:52:43;;;;;;;6.22;4.82;;;2.50;99.90;;;;;;5108618;28;20191;-50
2021/04/13 02:55:12;;;;;;;6.38;5.05;;;2.70;99.90;;;;;;5108865;28;20353;-51
2021/04/13 02:57:38;;;;;;;5.38;4.88;;;2.70;99.90;;;;;;5108928;28;20176;-51
2021/04/13 03:00:17;;;;;;;6.53;5.10;;;2.80;99.90;;;;;;5107694;28;20191;-51
2021/04/13 03:02:49;;;;;;;5.93;5.05;;;2.50;99.90;;;;;;5108079;28;20291;-51
2021/04/13 03:05:24;;;;;;;5.20;4.70;;;2.50;99.90;;;;;;5108257;28;20698;-51
2021/04/13 03:07:50;;;;;;;5.30;4.80;;;2.30;99.90;;;;;;5125461;27;20593;-50
2021/04/13 03:10:25;;;;;;;5.63;5.10;;;2.40;99.90;;;;;;5107944;28;20180;-51
2021/04/13 03:12:53;;;;;;;5.93;5.15;;;2.50;99.90;;;;;;5104790;28;20191;-51
2021/04/13 03:15:25;;;;;;;6.35;4.90;;;2.70;99.90;;;;;;5108275;28;20642;-51
2021/04/13 03:17:54;;;;;;;5.25;4.75;;;2.50;99.90;;;;;;5107811;28;20722;-51
2021/04/13 03:20:33;;;;;;;8.25;5.47;;;2.40;99.90;;;;;;5107689;28;20183;-50
2021/04/13 03:23:02;;;;;;;6.57;5.18;;;2.50;99.90;;;;;;5108004;28;20199;-50
2021/04/13 03:25:34;;;;;;;6.18;5.57;;;2.60;99.90;;;;;;5107859;28;20638;-50
2021/04/13 03:28:03;;;;;;;7.32;5.40;;;2.70;99.90;;;;;;5108011;28;20211;-50
2021/04/13 03:30:31;;;;;;;5.00;4.60;;;2.20;99.90;;;;;;5107625;28;20207;-50
2021/04/13 03:33:29;;;;;;;5.40;4.90;;;3.00;99.90;;;;;;5100876;28;20191;-50
2021/04/13 03:36:22;;;;;;;6.40;5.80;;;2.50;99.90;;;;;;5107335;28;20228;-50
2021/04/13 03:38:55;;;;;;;6.13;4.80;;;2.50;99.90;;;;;;5107115;28;20620;-51
2021/04/13 03:41:22;;;;;;;7.13;5.95;;;2.70;99.90;;;;;;5103634;28;20410;-50
2021/04/13 03:43:54;;;;;;;5.32;4.80;;;2.70;99.90;;;;;;5107767;28;20207;-50
2021/04/13 03:46:22;;;;;;;6.55;5.95;;;2.60;99.90;;;;;;5107731;28;20180;-49
2021/04/13 03:48:49;;;;;;;6.15;5.43;;;2.70;99.90;;;;;;5109113;28;20188;-51
2021/04/13 03:51:26;;;;;;;6.82;5.70;;;2.40;99.90;;;;;;5107118;28;20198;-51
2021/04/13 03:53:52;;;;;;;7.97;5.45;;;2.50;99.90;;;;;;5119273;28;20591;-51
2021/04/13 03:56:21;;;;;;;5.68;5.07;;;2.50;99.90;;;;;;5107812;28;20631;-50
2021/04/13 03:58:53;;;;;;;7.00;5.50;;;2.50;99.90;;;;;;5106604;28;20620;-50
2021/04/13 04:01:23;;;;;;;5.22;4.72;;;2.70;99.90;;;;;;5100250;28;20624;-50
2021/04/13 04:03:58;;;;;;;6.40;5.40;;;2.70;99.90;;;;;;5122051;28;20199;-51
2021/04/13 04:07:00;;;;;;;5.13;4.50;;;2.40;99.90;;;;;;5107927;28;20180;-51
2021/04/13 04:09:29;;;;;;;6.65;5.93;;;2.50;99.90;;;;;;5065392;28;20195;-51
2021/04/13 04:11:57;;;;;;;5.93;5.35;;;2.50;99.90;;;;;;5110113;28;20199;-51
2021/04/13 04:14:25;;;;;;;5.97;5.32;;;2.40;99.90;;;;;;5111527;28;20580;-51
2021/04/13 04:17:00;;;;;;;7.25;5.82;;;2.40;99.90;;;;;;5111851;28;20180;-50
2021/04/13 04:19:28;;;;;;;5.60;5.10;;;2.50;99.90;;;;;;5104962;28;20176;-51
2021/04/13 04:22:02;;;;;;;9.80;6.32;;;2.50;99.90;;;;;;5113408;28;20211;-51
2021/04/13 04:24:38;;;;;;;8.38;6.50;;;2.40;99.90;;;;;;5111828;28;20183;-50
2021/04/13 04:27:13;;;;;;;9.77;5.70;;;2.40;99.90;;;;;;5108272;28;20183;-51
2021/04/13 04:29:46;;;;;;;6.95;5.53;;;2.50;99.90;;;;;;5107914;28;20185;-51
2021/04/13 04:32:21;;;;;;;8.80;5.68;;;2.30;99.90;;;;;;5107408;28;20738;-51
2021/04/13 04:34:48;;;;;;;5.93;5.07;;;2.50;99.90;;;;;;5102817;28;20187;-51
2021/04/13 04:37:22;;;;;;;9.85;6.35;;;2.10;99.90;;;;;;5115555;27;20196;-51
2021/04/13 04:40:20;;;;;;;7.07;6.38;;;2.50;99.90;;;;;;5107213;28;20198;-51
2021/04/13 04:42:55;;;;;;;8.65;5.80;;;2.50;99.90;;;;;;5102063;28;20260;-51
2021/04/13 04:45:45;;;;;;;8.27;6.53;;;2.00;99.90;;;;;;5105383;27;20698;-65
2021/04/13 04:48:28;;;;;;;8.15;5.35;;;2.20;99.90;;;;;;5106150;27;20622;-67
2021/04/13 04:50:59;;;;;;;10.30;5.80;;;2.20;99.90;;;;;;5105946;27;20208;-53
2021/04/13 04:53:27;;;;;;;6.57;5.88;;;2.20;99.90;;;;;;5103520;27;20209;-54
2021/04/13 04:55:55;;;;;;;8.00;6.20;;;2.30;99.90;;;;;;5104781;27;20211;-54
2021/04/13 04:58:21;;;;;;;7.13;5.97;;;2.50;99.90;;;;;;5101190;27;20199;-52
2021/04/13 05:00:48;;;;;;;6.20;5.60;;;2.40;99.90;;;;;;5103971;27;20317;-55
2021/04/13 05:03:16;;;;;;;8.98;6.95;;;2.50;99.90;;;;;;5101345;28;20500;-55
2021/04/13 05:05:41;;;;;;;10.32;6.35;;;2.20;99.90;;;;;;5099310;28;20534;-52
2021/04/13 05:08:07;;;;;;;8.00;6.17;;;1.70;99.90;;;;;;5107164;27;20183;-53
2021/04/13 05:10:33;;;;;;;9.20;6.47;;;2.30;99.90;;;;;;5104203;27;20211;-50
2021/04/13 05:12:59;;;;;;;7.15;6.43;;;2.30;99.90;;;;;;5099730;27;20450;-50
2021/04/13 05:15:25;;;;;;;6.17;5.53;;;2.30;99.90;;;;;;5107027;28;20175;-50
2021/04/13 05:17:50;;;;;;;8.83;6.03;;;2.50;99.90;;;;;;5107527;28;20271;-54
2021/04/13 05:20:17;;;;;;;11.70;6.80;;;2.20;99.90;;;;;;5100456;28;20437;-54
2021/04/13 05:22:43;;;;;;;7.63;6.25;;;2.50;99.90;;;;;;5107533;27;20587;-54
2021/04/13 05:25:10;;;;;;;10.05;6.63;;;2.30;99.90;;;;;;5113871;27;20210;-54
2021/04/13 05:27:36;;;;;;;8.05;7.00;;;2.60;99.90;;;;;;5102329;27;20570;-56
2021/04/13 05:30:04;;;;;;;9.90;6.50;;;2.60;99.90;;;;;;5105098;27;20190;-57
2021/04/13 05:32:29;;;;;;;10.32;5.93;;;2.80;99.90;;;;;;5100162;28;20252;-53
2021/04/13 05:34:55;;;;;;;8.53;7.07;;;3.00;99.90;;;;;;5103475;27;20183;-51
2021/04/13 05:37:21;;;;;;;15.33;7.27;;;2.90;99.90;;;;;;5092034;28;20233;-51
2021/04/13 05:39:47;;;;;;;8.70;6.73;;;3.00;99.90;;;;;;5105858;28;20274;-51
2021/04/13 05:42:21;;;;;;;8.27;6.90;;;3.00;99.90;;;;;;5112690;27;20478;-51
2021/04/13 05:44:47;;;;;;;8.98;7.35;;;3.10;99.90;;;;;;5101889;28;20179;-51
2021/04/13 05:47:13;;;;;;;8.10;6.07;;;3.00;99.90;;;;;;5110102;28;20183;-51
2021/04/13 05:49:40;;;;;;;8.93;7.05;;;2.90;99.90;;;;;;5101564;28;20434;-51
2021/04/13 05:52:06;;;;;;;8.25;6.45;;;3.30;99.90;;;;;;5107865;28;20203;-51
2021/04/13 05:54:31;;;;;;;8.07;6.60;;;3.10;99.90;;;;;;5108635;28;20639;-50
2021/04/13 05:56:57;;;;;;;9.40;7.20;;;3.40;99.90;;;;;;5109280;28;20240;-51
2021/04/13 05:59:23;;;;;;;8.70;6.80;;;3.30;99.90;;;;;;5106213;28;20709;-51
2021/04/13 06:01:49;;;;;;;8.37;6.70;;;3.50;99.90;;;;;;5105385;27;20292;-53
2021/04/13 06:04:15;;;;;;;9.38;6.82;;;3.60;99.90;;;;;;5098044;28;20175;-56
2021/04/13 06:06:41;;;;;;;7.05;6.35;;;3.80;99.90;;;;;;5106876;27;20180;-58
2021/04/13 06:09:06;;;;;;;9.02;8.10;;;3.80;99.90;;;;;;5102835;28;20412;-57
2021/04/13 06:11:33;;;;;;;9.43;8.40;;;3.80;99.90;;;;;;5109510;28;20589;-59
2021/04/13 06:14:00;;;;;;;8.30;7.30;;;4.50;99.90;;;;;;5108670;28;20617;-52
2021/04/13 06:16:37;;;;;;;7.75;6.78;;;4.90;99.90;;;;;;5107594;28;20271;-52
2021/04/13 06:19:03;;;;;;;9.65;7.93;;;5.10;99.90;;;;;;5100633;28;20184;-52
2021/04/13 06:21:29;;;;;;;9.75;8.80;;;5.10;99.90;;;;;;5117959;27;20578;-51
2021/04/13 06:23:55;;;;;;;8.33;7.13;;;5.70;99.90;;;;;;5120020;27;20229;-52
2021/04/13 06:26:21;;;;;;;8.57;7.00;;;5.70;98.50;;;;;;5108078;27;20292;-53
2021/04/13 06:28:47;;;;;;;8.65;7.10;;;5.80;98.60;;;;;;5107464;28;20192;-52
2021/04/13 06:31:15;;;;;;;10.43;8.50;;;5.70;98.90;;;;;;5106457;28;20215;-49
2021/04/13 06:33:43;;;;;;;10.02;8.65;;;5.90;99.10;;;;;;5108377;28;20692;-55
2021/04/13 06:36:11;;;;;;;8.77;7.88;;;5.90;97.90;;;;;;5106794;28;20220;-52
2021/04/13 06:38:38;;;;;;;70.85;49.45;;;5.90;97.10;;;;;;5107593;28;20192;-53
2021/04/13 06:41:39;;;;;;;12.43;11.13;;;6.30;96.10;;;;;;5108364;28;20209;-53
2021/04/13 06:44:26;;;;;;;9.38;8.00;;;6.70;95.90;;;;;;5101854;28;20221;-53
2021/04/13 06:47:02;;;;;;;8.40;7.18;;;6.80;95.10;;;;;;5103740;28;20186;-52
2021/04/13 06:49:33;;;;;;;10.88;9.85;;;7.00;94.10;;;;;;5104173;28;20592;-51
2021/04/13 06:52:30;;;;;;;8.88;8.07;;;7.30;93.60;;;;;;5098369;28;20200;-50
2021/04/13 06:55:33;;;;;;;15.57;10.07;;;7.70;92.90;;;;;;5103278;28;20632;-50
2021/04/13 06:58:21;;;;;;;12.52;11.20;;;8.20;91.70;;;;;;5107946;27;20585;-51
2021/04/13 07:00:50;;;;;;;10.55;9.55;;;7.60;91.00;;;;;;5102662;28;20202;-51
2021/04/13 07:03:32;;;;;;;9.70;8.18;;;8.70;90.90;;;;;;5098295;28;20216;-51
2021/04/13 07:06:07;;;;;;;10.05;8.52;;;9.40;88.50;;;;;;5104618;28;20229;-53
2021/04/13 07:08:42;;;;;;;9.00;8.10;;;11.50;82.50;;;;;;5102909;28;20185;-53
2021/04/13 07:11:25;;;;;;;8.60;7.80;;;12.20;74.90;;;;;;5104934;28;20526;-54
2021/04/13 07:13:57;;;;;;;8.48;7.65;;;13.20;71.70;;;;;;5106688;28;20184;-53
2021/04/13 07:16:40;;;;;;;8.82;8.02;;;13.60;65.80;;;;;;5103180;28;20639;-53
2021/04/13 07:19:33;;;;;;;9.88;8.98;;;13.70;64.90;;;;;;5124820;27;20553;-51
2021/04/13 07:22:18;;;;;;;9.35;8.45;;;14.10;62.50;;;;;;5095835;28;20215;-52
2021/04/13 07:25:24;;;;;;;8.30;7.60;;;15.00;59.20;;;;;;5106184;28;20179;-54
2021/04/13 07:27:57;;;;;;;10.57;9.48;;;15.30;60.30;;;;;;5064867;28;20304;-53
2021/04/13 07:30:38;;;;;;;9.90;9.00;;;16.10;55.80;;;;;;5103252;28;20276;-54
2021/04/13 07:33:06;;;;;;;10.05;9.10;;;13.70;56.50;;;;;;5109238;28;20179;-54
2021/04/13 07:35:38;;;;;;;9.45;8.65;;;12.90;61.00;;;;;;5107012;28;20422;-53
2021/04/13 07:38:10;;;;;;;10.43;9.52;;;12.00;62.00;;;;;;5121040;27;20188;-54
2021/04/13 07:40:43;;;;;;;10.35;9.35;;;11.20;67.80;;;;;;5104671;28;20205;-52
2021/04/13 07:43:30;;;;;;;10.75;9.65;;;11.10;70.60;;;;;;5106988;28;20211;-54
2021/04/13 07:46:08;;;;;;;11.35;10.10;;;10.70;72.60;;;;;;5105873;28;20306;-53
2021/04/13 07:49:10;;;;;;;11.85;9.65;;;9.70;76.40;;;;;;5106442;28;20191;-52
2021/04/13 07:51:45;;;;;;;11.32;10.13;;;9.60;80.30;;;;;;5104934;28;20724;-52
2021/04/13 07:54:25;;;;;;;12.68;11.57;;;9.20;82.20;;;;;;5107189;28;20278;-52
2021/04/13 07:57:01;;;;;;;16.30;12.57;;;9.30;84.20;;;;;;5104982;28;20180;-53
2021/04/13 07:59:44;;;;;;;10.93;9.75;;;9.40;84.90;;;;;;5097265;28;20182;-51
2021/04/13 08:02:09;;;;;;;12.23;9.88;;;9.50;83.90;;;;;;5091621;28;20208;-53
2021/04/13 08:04:35;;;;;;;10.20;9.20;;;9.50;81.80;;;;;;5105551;28;20182;-52
2021/04/13 08:07:12;;;;;;;11.93;10.73;;;9.60;81.70;;;;;;5100872;28;20177;-53
2021/04/13 08:09:42;;;;;;;14.25;10.60;;;9.20;81.20;;;;;;5106805;28;20735;-53
2021/04/13 08:12:12;;;;;;;11.63;10.43;;;9.10;82.70;;;;;;5108777;28;20207;-53
2021/04/13 08:14:42;;;;;;;11.18;9.65;;;9.10;84.30;;;;;;5106089;28;20284;-53
2021/04/13 08:17:14;;;;;;;12.13;10.70;;;9.00;84.80;;;;;;5109051;28;20183;-52
2021/04/13 08:19:43;;;;;;;12.63;11.32;;;8.50;85.00;;;;;;5101505;28;20274;-52
2021/04/13 08:22:08;;;;;;;11.48;10.30;;;8.40;86.60;;;;;;5106646;28;20203;-52
2021/04/13 08:24:41;;;;;;;9.97;9.00;;;8.10;87.10;;;;;;5104973;28;20176;-51
2021/04/13 08:27:22;;;;;;;10.60;9.52;;;8.60;87.40;;;;;;5102104;28;20187;-51
2021/04/13 08:30:03;;;;;;;10.35;9.30;;;8.70;86.00;;;;;;5106025;28;20272;-51
2021/04/13 08:32:57;;;;;;;10.63;9.20;;;8.80;85.40;;;;;;5104238;28;20449;-51
2021/04/13 08:35:31;;;;;;;9.85;8.82;;;8.90;84.60;;;;;;5106719;28;20207;-51
2021/04/13 08:38:04;;;;;;;11.82;9.88;;;9.10;82.10;;;;;;5099762;28;20620;-51
2021/04/13 08:40:42;;;;;;;10.35;9.32;;;9.70;79.10;;;;;;5101670;28;20298;-51
2021/04/13 08:43:21;;;;;;;10.90;9.38;;;9.90;78.90;;;;;;5106660;28;20211;-51
2021/04/13 08:46:15;;;;;;;10.90;9.80;;;10.20;75.50;;;;;;5104576;28;20191;-51
2021/04/13 08:49:03;;;;;;;10.40;8.77;;;10.50;74.20;;;;;;5106896;28;20220;-50
2021/04/13 08:51:42;;;;;;;9.48;8.68;;;11.20;72.80;;;;;;5103467;28;20353;-51
2021/04/13 08:54:10;;;;;;;10.38;9.38;;;11.60;70.50;;;;;;5105261;28;20190;-53
2021/04/13 08:56:36;;;;;;;10.20;9.30;;;12.10;67.80;;;;;;5099964;28;20438;-52
2021/04/13 08:59:05;;;;;;;12.00;10.83;;;12.00;67.20;;;;;;5101851;28;20434;-53
2021/04/13 09:01:41;;;;;;;11.05;9.73;;;10.60;68.60;;;;;;5098105;28;20208;-52
2021/04/13 09:04:28;;;;;;;10.57;9.57;;;10.30;72.10;;;;;;5095235;28;20219;-54
2021/04/13 09:07:01;;;;;;;10.55;9.55;;;9.90;76.90;;;;;;5096042;28;20257;-53
2021/04/13 09:09:52;;;;;;;9.95;9.07;;;9.90;76.10;;;;;;5099819;28;20185;-53
2021/04/13 09:12:18;;;;;;;11.63;10.45;;;9.20;76.60;;;;;;5099765;28;20761;-52
2021/04/13 09:15:25;;;;;;;10.10;8.03;;;9.70;75.50;;;;;;5111515;28;20188;-53
2021/04/13 09:18:15;;;;;;;7.97;7.28;;;10.10;71.90;;;;;;5093047;28;20200;-54
2021/04/13 09:20:47;;;;;;;8.82;8.02;;;12.10;65.10;;;;;;5098256;28;20207;-54
2021/04/13 09:23:34;;;;;;;9.07;8.23;;;13.40;61.80;;;;;;5111196;28;20211;-55
2021/04/13 09:26:20;;;;;;;8.77;7.95;;;13.60;58.20;;;;;;5104348;28;20176;-56
2021/04/13 09:28:55;;;;;;;9.48;8.50;;;13.10;56.60;;;;;;5108456;28;20183;-56
2021/04/13 09:31:47;;;;;;;10.18;9.23;;;12.30;59.70;;;;;;5102525;28;20217;-52
2021/04/13 09:34:21;;;;;;;9.52;8.63;;;11.70;61.90;;;;;;5109243;28;20551;-53
2021/04/13 09:36:54;;;;;;;8.93;8.13;;;11.20;63.20;;;;;;5106352;28;20185;-56
2021/04/13 09:39:37;;;;;;;10.13;8.07;;;10.80;63.70;;;;;;5103881;28;20184;-57
2021/04/13 09:42:31;;;;;;;8.77;7.88;;;10.60;64.30;;;;;;5105912;28;20210;-57
2021/04/13 09:45:06;;;;;;;9.65;8.13;;;10.30;63.90;;;;;;5126854;27;20462;-55
2021/04/13 09:48:10;;;;;;;7.65;6.95;;;10.20;64.20;;;;;;5107767;28;20183;-56
2021/04/13 09:51:05;;;;;;;7.82;7.03;;;9.70;63.60;;;;;;5106678;28;20230;-56
2021/04/13 09:53:55;;;;;;;9.13;8.23;;;9.60;63.90;;;;;;5087824;28;20228;-57
2021/04/13 09:56:32;;;;;;;9.35;8.45;;;9.30;65.80;;;;;;5106297;28;21841;-50
2021/04/13 09:59:25;;;;;;;10.60;8.80;;;9.00;65.60;;;;;;5103992;28;20192;-54
2021/04/13 10:02:28;;;;;;;7.65;6.85;;;9.20;66.20;;;;;;5106592;28;20199;-52
2021/04/13 10:05:10;;;;;;;9.38;7.30;;;9.40;63.00;;;;;;5104883;28;20202;-52
2021/04/13 10:07:59;;;;;;;7.50;6.78;;;9.90;62.60;;;;;;5107959;28;20217;-52
2021/04/13 10:10:31;;;;;;;7.70;7.00;;;10.80;60.80;;;;;;5097683;27;20208;-52
2021/04/13 10:13:19;;;;;;;7.20;6.60;;;11.00;58.20;;;;;;5102420;28;20241;-51
2021/04/13 10:16:08;;;;;;;6.70;5.95;;;11.30;56.30;;;;;;5105050;28;20178;-52
2021/04/13 10:18:46;;;;;;;7.85;7.05;;;11.60;55.50;;;;;;5101403;28;20276;-52
2021/04/13 10:22:06;;;;;;;7.55;6.85;;;11.90;55.20;;;;;;5108331;28;20197;-52
2021/04/13 10:24:40;;;;;;;8.15;7.35;;;12.10;56.20;;;;;;5108157;28;20262;-52
2021/04/13 10:27:19;;;;;;;8.52;7.63;;;11.90;56.20;;;;;;5106982;28;20189;-52
2021/04/13 10:30:16;;;;;;;8.15;7.13;;;11.90;58.10;;;;;;5109871;28;20177;-52
2021/04/13 10:33:05;;;;;;;8.80;7.95;;;11.40;56.50;;;;;;5106555;28;20314;-52
2021/04/13 10:36:16;;;;;;;8.10;7.30;;;11.30;56.30;;;;;;5108672;28;20198;-52
2021/04/13 10:39:05;;;;;;;8.57;7.53;;;10.80;57.10;;;;;;5108454;28;20188;-52
2021/04/13 10:41:55;;;;;;;10.75;9.65;;;10.20;58.30;;;;;;5109642;28;20330;-51
2021/04/13 10:44:37;;;;;;;8.68;7.88;;;10.20;61.60;;;;;;5125917;27;20561;-52
2021/04/13 10:47:08;;;;;;;7.88;7.10;;;10.20;60.90;;;;;;5097461;27;20181;-52
2021/04/13 10:50:06;;;;;;;7.47;6.78;;;10.20;60.20;;;;;;5103956;28;20226;-52
2021/04/13 10:52:50;;;;;;;6.57;5.97;;;11.60;55.40;;;;;;5104731;28;20184;-50
2021/04/13 10:55:30;;;;;;;5.75;5.25;;;11.60;53.50;;;;;;5101782;28;20181;-52
2021/04/13 10:57:55;;;;;;;5.60;5.10;;;11.90;51.60;;;;;;5106701;27;20196;-52
2021/04/13 11:00:40;;;;;;;7.10;6.40;;;12.00;51.70;;;;;;5100930;28;20178;-52
2021/04/13 11:03:30;;;;;;;6.00;5.50;;;11.80;52.80;;;;;;5100605;28;20672;-52
2021/04/13 11:06:18;;;;;;;6.07;5.47;;;11.70;52.90;;;;;;5097971;28;20183;-56
2021/04/13 11:09:11;;;;;;;7.10;6.40;;;11.60;53.70;;;;;;5102022;28;20515;-55
2021/04/13 11:11:46;;;;;;;6.90;6.20;;;11.30;52.60;;;;;;5109358;28;20669;-54
2021/04/13 11:14:27;;;;;;;6.35;5.75;;;12.00;52.90;;;;;;5103390;28;20186;-53
2021/04/13 11:17:24;;;;;;;7.45;6.40;;;12.70;50.50;;;;;;5102335;28;20190;-51
2021/04/13 11:20:19;;;;;;;6.55;5.85;;;13.20;50.40;;;;;;5107688;28;20207;-52
2021/04/13 11:23:03;;;;;;;6.50;5.90;;;13.00;48.80;;;;;;5092885;28;20674;-55
2021/04/13 11:25:32;;;;;;;6.65;6.05;;;13.30;49.50;;;;;;5100221;28;20266;-55
2021/04/13 11:28:15;;;;;;;6.93;6.30;;;13.50;48.80;;;;;;5103344;28;20187;-55
2021/04/13 11:30:59;;;;;;;6.95;5.00;;;13.20;47.20;;;;;;5105533;28;21030;-54
2021/04/13 11:33:48;;;;;;;5.20;4.80;;;12.30;47.70;;;;;;5104691;28;20183;-52
2021/04/13 11:36:44;;;;;;;5.75;5.15;;;12.40;46.00;;;;;;5106840;28;20190;-51
2021/04/13 11:39:31;;;;;;;6.95;5.82;;;12.20;49.00;;;;;;5102191;28;20676;-51
2021/04/13 11:42:23;;;;;;;5.28;4.72;;;11.90;49.90;;;;;;5098391;28;20218;-53
2021/04/13 11:45:07;;;;;;;6.00;5.50;;;12.20;45.50;;;;;;5106277;28;20222;-52
2021/04/13 11:47:38;;;;;;;6.13;5.53;;;12.40;47.90;;;;;;5104491;28;20657;-53
2021/04/13 11:50:39;;;;;;;5.22;4.82;;;12.40;48.70;;;;;;5102416;28;20203;-53
2021/04/13 11:53:09;;;;;;;6.10;5.53;;;12.70;49.30;;;;;;5096365;28;20183;-53
2021/04/13 11:55:47;;;;;;;6.43;5.80;;;13.00;48.40;;;;;;5108224;28;20277;-56
2021/04/13 11:58:21;;;;;;;6.50;5.93;;;13.40;48.90;;;;;;5106956;28;20187;-57
2021/04/13 12:00:48;;;;;;;5.18;4.68;;;13.40;47.10;;;;;;5103091;28;20209;-53
2021/04/13 12:03:23;;;;;;;5.63;5.20;;;13.30;46.20;;;;;;5099808;28;20301;-53
2021/04/13 12:05:58;;;;;;;5.72;5.22;;;12.60;46.60;;;;;;5106245;28;20182;-52
2021/04/13 12:08:29;;;;;;;6.20;5.65;;;12.50;50.00;;;;;;5105192;28;20189;-51
2021/04/13 12:11:04;;;;;;;6.03;5.45;;;12.40;50.10;;;;;;5097371;28;20209;-51
2021/04/13 12:13:48;;;;;;;6.68;6.07;;;12.40;50.50;;;;;;5102972;28;20188;-52
2021/04/13 12:16:16;;;;;;;7.75;5.78;;;12.40;52.20;;;;;;5105606;28;20334;-53
2021/04/13 12:18:41;;;;;;;8.23;6.20;;;11.40;53.20;;;;;;5106223;28;20275;-55
2021/04/13 12:21:22;;;;;;;6.10;5.60;;;11.30;54.00;;;;;;5107529;28;20876;-55
2021/04/13 12:23:54;;;;;;;6.10;5.00;;;11.60;54.00;;;;;;5105245;28;20216;-54
2021/04/13 12:26:31;;;;;;;6.53;5.85;;;11.60;53.00;;;;;;5103478;28;20554;-54
2021/04/13 12:29:17;;;;;;;6.18;5.57;;;11.60;53.10;;;;;;5107082;28;20180;-53
2021/04/13 12:31:43;;;;;;;6.28;5.78;;;11.50;52.70;;;;;;5124187;27;20276;-53
2021/04/13 12:34:09;;;;;;;5.37;4.87;;;11.40;51.50;;;;;;5110828;28;20339;-51
2021/04/13 12:36:48;;;;;;;5.10;4.63;;;11.60;52.00;;;;;;5104231;28;20193;-52
2021/04/13 12:39:51;;;;;;;5.65;5.10;;;11.70;50.50;;;;;;5110511;28;20711;-55
2021/04/13 12:42:30;;;;;;;6.45;4.53;;;12.10;48.90;;;;;;5106512;28;20543;-56
2021/04/13 12:45:20;;;;;;;5.28;4.78;;;12.20;50.00;;;;;;5101453;28;20184;-55
2021/04/13 12:47:57;;;;;;;7.25;5.35;;;12.40;49.80;;;;;;5109295;28;20221;-55
2021/04/13 12:50:42;;;;;;;5.55;4.85;;;12.60;51.00;;;;;;5107933;28;20176;-55
2021/04/13 12:53:18;;;;;;;3.78;3.47;;;12.40;49.50;;;;;;5106581;28;20185;-54
2021/04/13 12:55:46;;;;;;;3.60;3.30;;;12.30;43.70;;;;;;5108398;28;20181;-54
2021/04/13 12:58:15;;;;;;;3.70;3.40;;;12.30;43.60;;;;;;5110001;28;20866;-54
2021/04/13 13:00:48;;;;;;;4.18;3.88;;;11.60;44.40;;;;;;5108094;28;20435;-52
2021/04/13 13:03:23;;;;;;;6.05;3.75;;;11.60;44.20;;;;;;5096393;28;20307;-53
2021/04/13 13:05:51;;;;;;;4.00;3.70;;;11.20;44.20;;;;;;5108283;27;20184;-54
2021/04/13 13:08:30;;;;;;;5.15;4.72;;;10.90;44.70;;;;;;5108112;28;20189;-51
2021/04/13 13:11:06;;;;;;;5.15;4.65;;;10.60;46.90;;;;;;5108240;27;20598;-53
2021/04/13 13:13:34;;;;;;;6.05;4.25;;;10.20;47.50;;;;;;5115399;27;20192;-54
2021/04/13 13:16:11;;;;;;;6.25;5.10;;;10.20;48.50;;;;;;5108724;28;20552;-54
2021/04/13 13:18:42;;;;;;;6.43;4.90;;;10.50;49.50;;;;;;5102322;28;20207;-54
2021/04/13 13:21:14;;;;;;;6.47;5.18;;;10.80;49.90;;;;;;5105075;28;20215;-54
2021/04/13 13:23:51;;;;;;;5.80;5.28;;;10.80;53.00;;;;;;5109877;28;20218;-52
2021/04/13 13:26:26;;;;;;;5.50;5.00;;;10.80;55.40;;;;;;5098318;28;20498;-51
2021/04/13 13:28:52;;;;;;;6.10;5.50;;;10.40;58.20;;;;;;5105360;28;20571;-50
2021/04/13 13:31:17;;;;;;;5.77;5.23;;;10.60;59.50;;;;;;5105712;28;20219;-51
2021/04/13 13:33:46;;;;;;;5.87;5.27;;;10.30;62.90;;;;;;5100890;27;20195;-51
2021/04/13 13:36:14;;;;;;;5.95;5.40;;;10.30;65.90;;;;;;5108687;28;20231;-51
2021/04/13 13:38:42;;;;;;;5.75;4.90;;;10.30;68.90;;;;;;5108031;28;20257;-51
2021/04/13 13:41:11;;;;;;;7.70;6.10;;;9.90;67.40;;;;;;5107364;28;20208;-52